createdAt,value
2017-12-21T00:02:13.328Z,101668.55
2017-12-21T00:04:40.816Z,101658.09
2017-12-21T00:07:08.279Z,101656.89
2017-12-21T00:09:36.224Z,101649.73
2017-12-21T00:12:03.693Z,101652.40
2017-12-21T00:14:31.158Z,101645.98
2017-12-21T00:16:58.622Z,101644.66
2017-12-21T00:19:26.100Z,101659.25
2017-12-21T00:21:53.561Z,101671.36
2017-12-21T00:24:21.050Z,101669.33
2017-12-21T00:26:48.509Z,101675.81
2017-12-21T00:29:16.001Z,101680.83
2017-12-21T00:31:43.996Z,101671.17
2017-12-21T00:34:11.458Z,101671.98
2017-12-21T00:36:38.972Z,101676.08
2017-12-21T00:39:06.440Z,101671.08
2017-12-21T00:41:33.911Z,101671.73
2017-12-21T00:44:01.376Z,101669.34
2017-12-21T00:46:28.867Z,101671.41
2017-12-21T00:48:56.323Z,101676.42
2017-12-21T00:51:23.797Z,101668.24
2017-12-21T00:53:51.269Z,101665.22
2017-12-21T00:56:18.743Z,101674.09
2017-12-21T00:58:46.201Z,101669.33
2017-12-21T01:01:13.667Z,101666.27
2017-12-21T01:03:41.136Z,101659.86
2017-12-21T01:06:08.625Z,101654.35
2017-12-21T01:08:36.083Z,101654.05
2017-12-21T01:11:03.539Z,101652.42
2017-12-21T01:13:31.015Z,101659.71
2017-12-21T01:15:58.474Z,101652.66
2017-12-21T01:18:25.952Z,101658.09
2017-12-21T01:20:53.416Z,101662.38
2017-12-21T01:23:20.886Z,101652.58
2017-12-21T01:25:48.353Z,101645.62
2017-12-21T01:28:15.835Z,101651.34
2017-12-21T01:30:43.294Z,101645.00
2017-12-21T01:33:10.791Z,101642.45
2017-12-21T01:35:38.265Z,101629.89
2017-12-21T01:38:05.724Z,101612.73
2017-12-21T01:40:33.215Z,101624.38
2017-12-21T01:43:00.693Z,101634.07
2017-12-21T01:45:28.151Z,101624.78
2017-12-21T01:47:55.615Z,101627.86
2017-12-21T01:50:23.085Z,101630.70
2017-12-21T01:52:50.545Z,101629.81
2017-12-21T01:55:18.017Z,101621.84
2017-12-21T01:57:45.486Z,101622.36
2017-12-21T02:00:12.963Z,101617.05
2017-12-21T02:02:40.419Z,101627.97
2017-12-21T02:05:07.881Z,101621.12
2017-12-21T02:07:35.343Z,101617.67
2017-12-21T02:10:02.806Z,101619.80
2017-12-21T02:12:30.261Z,101624.40
2017-12-21T02:14:57.760Z,101625.32
2017-12-21T02:17:25.264Z,101612.64
2017-12-21T02:19:52.734Z,101601.00
2017-12-21T02:22:20.205Z,101588.44
2017-12-21T02:24:47.664Z,101590.08
2017-12-21T02:27:15.140Z,101591.59
2017-12-21T02:29:42.614Z,101590.19
2017-12-21T02:32:10.093Z,101583.13
2017-12-21T02:34:37.558Z,101589.87
2017-12-21T02:37:05.023Z,101582.22
2017-12-21T02:39:32.473Z,101583.74
2017-12-21T02:41:59.969Z,101582.52
2017-12-21T02:44:27.433Z,101573.84
2017-12-21T02:46:54.890Z,101570.47
2017-12-21T02:49:22.398Z,101576.48
2017-12-21T02:51:49.872Z,101577.83
2017-12-21T02:54:17.343Z,101580.38
2017-12-21T02:56:44.869Z,101583.94
2017-12-21T02:59:12.366Z,101585.17
2017-12-21T03:01:39.827Z,101580.28
2017-12-21T03:04:07.297Z,101575.66
2017-12-21T03:06:34.765Z,101570.78
2017-12-21T03:09:02.243Z,101569.75
2017-12-21T03:11:29.698Z,101577.09
2017-12-21T03:13:57.201Z,101568.13
2017-12-21T03:16:24.663Z,101568.52
2017-12-21T03:18:52.152Z,101573.63
2017-12-21T03:21:27.038Z,101576.38
2017-12-21T03:23:55.994Z,101572.50
2017-12-21T03:26:23.449Z,101578.54
2017-12-21T03:28:50.933Z,101568.01
2017-12-21T03:31:18.428Z,101568.02
2017-12-21T03:33:45.905Z,101570.24
2017-12-21T03:36:13.371Z,101565.25
2017-12-21T03:38:40.864Z,101561.36
2017-12-21T03:41:08.340Z,101567.41
2017-12-21T03:43:35.806Z,101563.01
2017-12-21T03:46:03.275Z,101559.52
2017-12-21T03:48:30.734Z,101563.41
2017-12-21T03:50:58.212Z,101558.81
2017-12-21T03:53:25.677Z,101555.63
2017-12-21T03:55:53.138Z,101546.98
2017-12-21T03:58:20.594Z,101545.33
2017-12-21T04:00:48.181Z,101551.14
2017-12-21T04:03:15.630Z,101547.56
2017-12-21T04:05:43.093Z,101547.26
2017-12-21T04:08:10.566Z,101548.19
2017-12-21T04:10:38.027Z,101543.16
2017-12-21T04:13:05.490Z,101537.16
2017-12-21T04:15:32.949Z,101536.75
2017-12-21T04:18:00.444Z,101540.23
2017-12-21T04:20:27.893Z,101531.44
2017-12-21T04:22:55.374Z,101522.76
2017-12-21T04:25:22.832Z,101517.96
2017-12-21T04:27:50.330Z,101517.06
2017-12-21T04:30:17.799Z,101516.83
2017-12-21T04:32:45.304Z,101517.55
2017-12-21T04:35:12.774Z,101518.78
2017-12-21T04:37:40.230Z,101514.30
2017-12-21T04:40:07.684Z,101523.19
2017-12-21T04:42:35.149Z,101522.57
2017-12-21T04:45:02.613Z,101514.49
2017-12-21T04:47:30.062Z,101524.61
2017-12-21T04:49:57.542Z,101521.94
2017-12-21T04:52:24.994Z,101526.03
2017-12-21T04:54:52.511Z,101524.59
2017-12-21T04:57:20.016Z,101518.18
2017-12-21T04:59:47.503Z,101520.30
2017-12-21T05:02:14.955Z,101517.55
2017-12-21T05:04:42.419Z,101514.81
2017-12-21T05:07:09.968Z,101516.55
2017-12-21T05:09:37.432Z,101520.30
2017-12-21T05:12:05.114Z,101518.78
2017-12-21T05:14:32.585Z,101512.16
2017-12-21T05:17:00.058Z,101502.56
2017-12-21T05:19:27.519Z,101503.35
2017-12-21T05:21:54.984Z,101507.64
2017-12-21T05:24:22.448Z,101502.64
2017-12-21T05:26:49.917Z,101503.55
2017-12-21T05:29:17.368Z,101494.46
2017-12-21T05:31:44.868Z,101495.59
2017-12-21T05:34:12.358Z,101493.05
2017-12-21T05:36:39.850Z,101486.40
2017-12-21T05:39:07.316Z,101483.84
2017-12-21T05:41:34.785Z,101481.48
2017-12-21T05:44:02.284Z,101480.98
2017-12-21T05:46:29.768Z,101484.26
2017-12-21T05:48:57.234Z,101488.86
2017-12-21T05:51:24.693Z,101491.78
2017-12-21T05:53:52.169Z,101484.44
2017-12-21T05:56:19.622Z,101478.31
2017-12-21T05:58:47.087Z,101477.33
2017-12-21T06:01:14.548Z,101475.47
2017-12-21T06:03:42.184Z,101475.31
2017-12-21T06:06:09.672Z,101475.12
2017-12-21T06:08:37.127Z,101474.92
2017-12-21T06:11:04.614Z,101477.61
2017-12-21T06:13:32.088Z,101476.67
2017-12-21T06:15:59.552Z,101471.59
2017-12-21T06:18:27.005Z,101476.20
2017-12-21T06:20:54.468Z,101473.93
2017-12-21T06:23:21.930Z,101484.78
2017-12-21T06:25:49.403Z,101481.43
2017-12-21T06:28:16.893Z,101470.16
2017-12-21T06:30:44.388Z,101472.20
2017-12-21T06:33:11.949Z,101468.45
2017-12-21T06:35:39.407Z,101472.62
2017-12-21T06:38:06.889Z,101463.12
2017-12-21T06:40:34.358Z,101465.77
2017-12-21T06:43:01.929Z,101462.59
2017-12-21T06:45:29.402Z,101463.00
2017-12-21T06:47:56.874Z,101466.89
2017-12-21T06:50:26.122Z,101461.90
2017-12-21T06:52:53.654Z,101467.92
2017-12-21T06:55:21.110Z,101459.11
2017-12-21T06:57:48.567Z,101455.42
2017-12-21T07:00:16.193Z,101455.51
2017-12-21T07:02:43.746Z,101453.89
2017-12-21T07:05:11.202Z,101456.81
2017-12-21T07:07:38.665Z,101454.27
2017-12-21T07:10:06.161Z,101449.77
2017-12-21T07:12:33.730Z,101450.28
2017-12-21T07:15:01.301Z,101453.78
2017-12-21T07:17:28.762Z,101456.01
2017-12-21T07:19:56.241Z,101460.69
2017-12-21T07:22:23.691Z,101458.23
2017-12-21T07:24:51.210Z,101452.62
2017-12-21T07:27:18.661Z,101459.48
2017-12-21T07:29:46.219Z,101461.53
2017-12-21T07:32:13.678Z,101456.82
2017-12-21T07:34:41.122Z,101459.05
2017-12-21T07:37:08.590Z,101458.23
2017-12-21T07:39:36.109Z,101455.27
2017-12-21T07:42:03.587Z,101456.97
2017-12-21T07:44:31.035Z,101452.67
2017-12-21T07:46:58.508Z,101455.41
2017-12-21T07:49:25.992Z,101450.64
2017-12-21T07:51:53.478Z,101455.20
2017-12-21T07:54:21.886Z,101449.38
2017-12-21T07:56:50.271Z,101458.39
2017-12-21T07:59:17.824Z,101455.98
2017-12-21T08:01:45.290Z,101458.48
2017-12-21T08:04:12.741Z,101455.61
2017-12-21T08:06:40.235Z,101450.50
2017-12-21T08:09:07.715Z,101440.38
2017-12-21T08:11:35.285Z,101448.25
2017-12-21T08:14:02.757Z,101447.00
2017-12-21T08:16:30.321Z,101453.33
2017-12-21T08:18:57.886Z,101447.61
2017-12-21T08:21:25.357Z,101452.50
2017-12-21T08:23:52.833Z,101445.03
2017-12-21T08:26:20.408Z,101447.06
2017-12-21T08:28:47.978Z,101445.64
2017-12-21T08:31:15.427Z,101441.34
2017-12-21T08:33:42.917Z,101441.02
2017-12-21T08:36:10.388Z,101437.52
2017-12-21T08:38:37.833Z,101442.11
2017-12-21T08:41:05.298Z,101443.84
2017-12-21T08:43:32.777Z,101443.50
2017-12-21T08:46:00.275Z,101449.05
2017-12-21T08:48:27.835Z,101449.28
2017-12-21T08:50:55.318Z,101453.45
2017-12-21T08:53:22.781Z,101446.16
2017-12-21T08:55:50.366Z,101444.22
2017-12-21T08:58:17.829Z,101446.56
2017-12-21T09:00:45.321Z,101439.80
2017-12-21T09:03:12.782Z,101441.81
2017-12-21T09:05:40.233Z,101440.28
2017-12-21T09:08:07.713Z,101439.31
2017-12-21T09:10:35.177Z,101433.63
2017-12-21T09:13:02.638Z,101431.17
2017-12-21T09:15:30.090Z,101434.64
2017-12-21T09:17:57.602Z,101427.81
2017-12-21T09:20:25.074Z,101427.21
2017-12-21T09:22:52.645Z,101420.73
2017-12-21T09:25:20.133Z,101427.46
2017-12-21T09:27:47.643Z,101425.73
2017-12-21T09:30:15.149Z,101417.63
2017-12-21T09:32:42.623Z,101415.12
2017-12-21T09:35:10.091Z,101417.14
2017-12-21T09:37:37.561Z,101414.28
2017-12-21T09:40:05.040Z,101418.63
2017-12-21T09:42:32.498Z,101419.03
2017-12-21T09:44:59.981Z,101413.05
2017-12-21T09:47:27.431Z,101412.45
2017-12-21T09:49:54.902Z,101408.34
2017-12-21T09:52:22.397Z,101409.75
2017-12-21T09:54:49.972Z,101412.69
2017-12-21T09:57:17.527Z,101410.02
2017-12-21T09:59:45.019Z,101407.80
2017-12-21T10:02:12.490Z,101406.84
2017-12-21T10:04:40.581Z,101402.77
2017-12-21T10:07:08.057Z,101410.55
2017-12-21T10:09:35.525Z,101413.00
2017-12-21T10:12:03.075Z,101402.95
2017-12-21T10:14:30.539Z,101406.14
2017-12-21T10:16:58.010Z,101394.04
2017-12-21T10:19:25.481Z,101394.43
2017-12-21T10:21:52.949Z,101391.65
2017-12-21T10:24:20.443Z,101392.05
2017-12-21T10:26:47.994Z,101386.07
2017-12-21T10:29:15.460Z,101388.45
2017-12-21T10:31:43.148Z,101387.00
2017-12-21T10:34:10.617Z,101388.81
2017-12-21T10:36:41.465Z,101391.86
2017-12-21T10:39:08.989Z,101377.70
2017-12-21T10:41:36.417Z,101380.44
2017-12-21T10:44:03.902Z,101380.72
2017-12-21T10:46:31.370Z,101379.77
2017-12-21T10:48:58.840Z,101381.09
2017-12-21T10:51:26.292Z,101370.80
2017-12-21T10:53:53.868Z,101373.25
2017-12-21T10:56:21.317Z,101374.23
2017-12-21T10:58:48.812Z,101364.86
2017-12-21T11:01:16.268Z,101367.46
2017-12-21T11:03:43.755Z,101362.13
2017-12-21T11:06:11.227Z,101366.14
2017-12-21T11:08:38.790Z,101354.63
2017-12-21T11:11:06.401Z,101356.09
2017-12-21T11:13:33.939Z,101346.68
2017-12-21T11:16:01.411Z,101350.09
2017-12-21T11:18:28.876Z,101352.29
2017-12-21T11:20:56.354Z,101346.58
2017-12-21T11:23:23.815Z,101354.77
2017-12-21T11:25:51.273Z,101339.23
2017-12-21T11:28:18.727Z,101344.97
2017-12-21T11:30:46.341Z,101342.92
2017-12-21T11:33:13.814Z,101335.58
2017-12-21T11:35:41.349Z,101336.27
2017-12-21T11:38:08.854Z,101340.66
2017-12-21T11:40:36.512Z,101341.78
2017-12-21T11:43:03.970Z,101342.25
2017-12-21T11:45:31.475Z,101335.38
2017-12-21T11:47:58.948Z,101340.73
2017-12-21T11:50:26.530Z,101333.93
2017-12-21T11:52:54.017Z,101334.73
2017-12-21T11:55:21.550Z,101340.64
2017-12-21T11:57:49.029Z,101341.45
2017-12-21T12:00:16.503Z,101330.58
2017-12-21T12:02:44.091Z,101331.51
2017-12-21T12:05:11.609Z,101324.27
2017-12-21T12:07:39.117Z,101326.72
2017-12-21T12:10:06.587Z,101324.53
2017-12-21T12:12:34.366Z,101322.45
2017-12-21T12:15:01.809Z,101326.45
2017-12-21T12:17:29.297Z,101328.19
2017-12-21T12:19:56.767Z,101315.74
2017-12-21T12:22:24.225Z,101318.34
2017-12-21T12:24:51.767Z,101316.73
2017-12-21T12:27:19.398Z,101323.59
2017-12-21T12:29:46.858Z,101314.73
2017-12-21T12:32:14.319Z,101315.52
2017-12-21T12:34:41.779Z,101311.05
2017-12-21T12:37:09.234Z,101309.45
2017-12-21T12:39:36.704Z,101313.20
2017-12-21T12:42:04.211Z,101308.98
2017-12-21T12:44:31.678Z,101312.38
2017-12-21T12:46:59.149Z,101311.92
2017-12-21T12:49:26.603Z,101322.20
2017-12-21T12:51:54.057Z,101317.12
2017-12-21T12:54:21.515Z,101323.52
2017-12-21T12:56:49.032Z,101315.92
2017-12-21T12:59:16.469Z,101320.91
2017-12-21T13:01:43.926Z,101320.20
2017-12-21T13:04:11.496Z,101326.65
2017-12-21T13:06:39.020Z,101323.98
2017-12-21T13:09:06.501Z,101324.70
2017-12-21T13:11:33.954Z,101325.52
2017-12-21T13:14:01.435Z,101325.85
2017-12-21T13:16:28.925Z,101326.56
2017-12-21T13:18:56.375Z,101330.38
2017-12-21T13:21:23.833Z,101328.36
2017-12-21T13:23:51.305Z,101332.45
2017-12-21T13:26:18.765Z,101330.31
2017-12-21T13:28:46.215Z,101332.30
2017-12-21T13:31:13.682Z,101335.30
2017-12-21T13:33:41.194Z,101336.36
2017-12-21T13:36:08.650Z,101344.52
2017-12-21T13:38:36.138Z,101348.02
2017-12-21T13:41:03.602Z,101348.84
2017-12-21T13:43:31.235Z,101345.30
2017-12-21T13:45:58.710Z,101352.21
2017-12-21T13:48:26.173Z,101359.83
2017-12-21T13:50:53.639Z,101349.51
2017-12-21T13:53:21.105Z,101348.63
2017-12-21T13:55:48.641Z,101346.77
2017-12-21T13:58:16.128Z,101353.44
2017-12-21T14:00:43.670Z,101349.63
2017-12-21T14:03:11.147Z,101357.56
2017-12-21T14:05:38.713Z,101360.48
2017-12-21T14:08:06.176Z,101365.22
2017-12-21T14:10:33.739Z,101366.56
2017-12-21T14:13:01.191Z,101363.89
2017-12-21T14:15:28.656Z,101368.01
2017-12-21T14:17:56.458Z,101378.76
2017-12-21T14:20:23.913Z,101379.50
2017-12-21T14:22:51.396Z,101383.23
2017-12-21T14:25:18.893Z,101377.16
2017-12-21T14:27:46.365Z,101380.83
2017-12-21T14:30:13.809Z,101377.34
2017-12-21T14:32:41.281Z,101385.09
2017-12-21T14:35:08.727Z,101383.35
2017-12-21T14:37:36.275Z,101387.54
2017-12-21T14:40:03.737Z,101394.13
2017-12-21T14:42:31.198Z,101397.02
2017-12-21T14:44:58.760Z,101392.06
2017-12-21T14:47:26.236Z,101400.80
2017-12-21T14:49:53.721Z,101394.89
2017-12-21T14:52:21.250Z,101392.30
2017-12-21T14:54:48.744Z,101398.73
2017-12-21T14:57:16.210Z,101401.87
2017-12-21T14:59:43.806Z,101405.34
2017-12-21T15:02:11.359Z,101402.74
2017-12-21T15:04:38.829Z,101391.48
2017-12-21T15:07:06.287Z,101392.41
2017-12-21T15:09:33.818Z,101391.67
2017-12-21T15:12:01.343Z,101392.87
2017-12-21T15:14:28.809Z,101393.89
2017-12-21T15:16:56.285Z,101397.27
2017-12-21T15:19:23.865Z,101398.47
2017-12-21T15:21:51.323Z,101401.05
2017-12-21T15:24:18.781Z,101410.59
2017-12-21T15:26:46.250Z,101414.81
2017-12-21T15:29:13.749Z,101409.88
2017-12-21T15:31:41.247Z,101402.92
2017-12-21T15:34:08.712Z,101404.54
2017-12-21T15:36:36.257Z,101411.20
2017-12-21T15:39:03.726Z,101420.13
2017-12-21T15:41:32.628Z,101425.88
2017-12-21T15:44:00.091Z,101432.19
2017-12-21T15:46:27.559Z,101434.38
2017-12-21T15:48:55.056Z,101444.80
2017-12-21T15:51:22.567Z,101449.88
2017-12-21T15:53:50.042Z,101468.77
2017-12-21T15:56:17.750Z,101479.77
2017-12-21T15:58:45.351Z,101479.36
2017-12-21T16:01:12.810Z,101480.24
2017-12-21T16:03:40.274Z,101474.13
2017-12-21T16:06:07.739Z,101483.45
2017-12-21T16:08:35.208Z,101485.91
2017-12-21T16:11:02.674Z,101481.30
2017-12-21T16:13:30.145Z,101473.53
2017-12-21T16:15:57.634Z,101467.59
2017-12-21T16:18:25.204Z,101461.78
2017-12-21T16:20:52.686Z,101454.30
2017-12-21T16:23:20.143Z,101449.45
2017-12-21T16:25:47.716Z,101450.94
2017-12-21T16:28:15.195Z,101454.88
2017-12-21T16:30:42.661Z,101452.78
2017-12-21T16:33:10.115Z,101453.54
2017-12-21T16:35:37.594Z,101459.11
2017-12-21T16:38:05.049Z,101459.39
2017-12-21T16:40:32.516Z,101455.46
2017-12-21T16:43:00.191Z,101454.11
2017-12-21T16:45:27.727Z,101445.38
2017-12-21T16:47:55.192Z,101449.25
2017-12-21T16:50:22.645Z,101456.66
2017-12-21T16:52:50.126Z,101458.78
2017-12-21T16:55:17.661Z,101465.56
2017-12-21T16:57:45.158Z,101478.03
2017-12-21T17:00:12.622Z,101487.79
2017-12-21T17:02:40.108Z,101495.31
2017-12-21T17:05:07.574Z,101498.09
2017-12-21T17:07:35.054Z,101473.58
2017-12-21T17:10:02.597Z,101459.06
2017-12-21T17:12:30.051Z,101468.13
2017-12-21T17:14:57.558Z,101485.63
2017-12-21T17:17:25.022Z,101482.38
2017-12-21T17:19:52.511Z,101492.44
2017-12-21T17:22:19.975Z,101499.31
2017-12-21T17:24:47.443Z,101500.37
2017-12-21T17:27:14.909Z,101508.77
2017-12-21T17:29:42.481Z,101521.35
2017-12-21T17:32:10.057Z,101518.02
2017-12-21T17:34:37.578Z,101520.47
2017-12-21T17:37:05.186Z,101527.20
2017-12-21T17:39:32.761Z,101541.00
2017-12-21T17:42:00.267Z,101532.28
2017-12-21T17:44:27.724Z,101534.63
2017-12-21T17:46:55.320Z,101539.55
2017-12-21T17:49:22.819Z,101546.29
2017-12-21T17:51:50.327Z,101545.16
2017-12-21T17:54:17.786Z,101540.69
2017-12-21T17:56:45.437Z,101536.73
2017-12-21T17:59:12.954Z,101532.22
2017-12-21T18:01:40.740Z,101536.45
2017-12-21T18:04:08.218Z,101543.72
2017-12-21T18:06:35.721Z,101547.67
2017-12-21T18:09:03.247Z,101552.80
2017-12-21T18:11:30.712Z,101533.66
2017-12-21T18:13:58.299Z,101544.60
2017-12-21T18:16:25.727Z,101562.66
2017-12-21T18:18:53.374Z,101572.83
2017-12-21T18:21:20.847Z,101575.17
2017-12-21T18:23:48.377Z,101581.06
2017-12-21T18:26:15.890Z,101575.61
2017-12-21T18:28:43.390Z,101582.84
2017-12-21T18:31:10.895Z,101574.65
2017-12-21T18:33:38.355Z,101574.45
2017-12-21T18:36:05.831Z,101575.41
2017-12-21T18:38:33.332Z,101568.34
2017-12-21T18:41:00.879Z,101556.56
2017-12-21T18:43:28.357Z,101574.45
2017-12-21T18:45:55.886Z,101602.13
2017-12-21T18:48:23.351Z,101592.11
2017-12-21T18:50:50.921Z,101593.41
2017-12-21T18:53:18.382Z,101592.07
2017-12-21T18:55:45.853Z,101586.42
2017-12-21T18:58:13.427Z,101587.23
2017-12-21T19:00:40.887Z,101592.48
2017-12-21T19:03:08.444Z,101600.22
2017-12-21T19:05:35.957Z,101620.41
2017-12-21T19:08:03.501Z,101614.02
2017-12-21T19:10:31.323Z,101610.26
2017-12-21T19:12:58.850Z,101613.41
2017-12-21T19:15:26.305Z,101611.24
2017-12-21T19:17:53.824Z,101618.71
2017-12-21T19:20:21.381Z,101614.72
2017-12-21T19:22:48.931Z,101620.62
2017-12-21T19:25:16.444Z,101621.95
2017-12-21T19:27:43.956Z,101625.14
2017-12-21T19:30:11.438Z,101624.33
2017-12-21T19:32:38.896Z,101622.89
2017-12-21T19:35:06.477Z,101630.95
2017-12-21T19:37:34.002Z,101628.86
2017-12-21T19:40:01.582Z,101623.28
2017-12-21T19:42:29.114Z,101618.23
2017-12-21T19:44:56.637Z,101606.16
2017-12-21T19:47:26.774Z,101604.20
2017-12-21T19:49:54.266Z,101602.50
2017-12-21T19:52:21.905Z,101602.02
2017-12-21T19:54:49.447Z,101604.27
2017-12-21T19:57:16.964Z,101602.27
2017-12-21T19:59:44.506Z,101606.59
2017-12-21T20:02:11.988Z,101615.81
2017-12-21T20:04:39.504Z,101616.36
2017-12-21T20:07:06.973Z,101620.13
2017-12-21T20:09:34.528Z,101623.51
2017-12-21T20:12:02.044Z,101630.88
2017-12-21T20:14:29.807Z,101630.36
2017-12-21T20:16:57.323Z,101632.19
2017-12-21T20:19:24.892Z,101636.78
2017-12-21T20:21:52.367Z,101633.81
2017-12-21T20:24:19.995Z,101633.67
2017-12-21T20:26:47.820Z,101646.34
2017-12-21T20:29:15.379Z,101645.39
2017-12-21T20:31:43.287Z,101635.44
2017-12-21T20:34:10.810Z,101626.12
2017-12-21T20:36:38.316Z,101628.58
2017-12-21T20:39:05.836Z,101625.30
2017-12-21T20:41:33.389Z,101624.91
2017-12-21T20:44:00.921Z,101622.21
2017-12-21T20:46:28.492Z,101621.43
2017-12-21T20:48:56.022Z,101631.67
2017-12-21T20:51:23.566Z,101632.31
2017-12-21T20:53:51.122Z,101631.62
2017-12-21T20:56:18.588Z,101635.09
2017-12-21T20:58:46.119Z,101624.55
2017-12-21T21:01:13.646Z,101623.83
2017-12-21T21:03:41.184Z,101626.32
2017-12-21T21:06:08.736Z,101626.00
2017-12-21T21:08:36.244Z,101624.84
2017-12-21T21:11:03.811Z,101621.17
2017-12-21T21:13:31.344Z,101631.13
2017-12-21T21:15:58.835Z,101623.86
2017-12-21T21:18:26.352Z,101623.57
2017-12-21T21:20:53.888Z,101631.23
2017-12-21T21:23:21.398Z,101630.45
2017-12-21T21:25:48.922Z,101628.71
2017-12-21T21:28:16.445Z,101619.59
2017-12-21T21:30:43.968Z,101612.97
2017-12-21T21:33:11.576Z,101627.61
2017-12-21T21:35:39.133Z,101621.97
2017-12-21T21:38:06.727Z,101617.13
2017-12-21T21:40:34.237Z,101613.27
2017-12-21T21:43:01.755Z,101620.03
2017-12-21T21:45:29.265Z,101616.71
2017-12-21T21:47:56.804Z,101628.73
2017-12-21T21:50:24.269Z,101625.44
2017-12-21T21:52:51.896Z,101621.04
2017-12-21T21:55:19.443Z,101618.08
2017-12-21T21:57:47.020Z,101616.34
2017-12-21T22:00:14.534Z,101616.17
2017-12-21T22:02:42.060Z,101619.13
2017-12-21T22:05:09.585Z,101619.03
2017-12-21T22:07:37.108Z,101619.55
2017-12-21T22:10:04.623Z,101615.36
2017-12-21T22:12:32.153Z,101628.16
2017-12-21T22:14:59.674Z,101631.11
2017-12-21T22:17:27.229Z,101635.51
2017-12-21T22:19:54.762Z,101632.66
2017-12-21T22:22:22.218Z,101637.24
2017-12-21T22:24:49.768Z,101639.09
2017-12-21T22:27:17.283Z,101643.81
2017-12-21T22:29:44.772Z,101644.82
2017-12-21T22:32:12.249Z,101645.31
2017-12-21T22:34:40.063Z,101640.43
2017-12-21T22:37:07.585Z,101642.98
2017-12-21T22:39:35.063Z,101646.77
2017-12-21T22:42:02.558Z,101638.49
2017-12-21T22:44:30.498Z,101641.33
2017-12-21T22:46:58.000Z,101642.34
2017-12-21T22:49:25.473Z,101649.30
2017-12-21T22:51:52.992Z,101647.34
2017-12-21T22:54:20.499Z,101646.65
2017-12-21T22:56:48.004Z,101641.73
2017-12-21T22:59:15.547Z,101645.62
2017-12-21T23:01:43.092Z,101644.61
2017-12-21T23:04:10.608Z,101652.81
2017-12-21T23:06:38.123Z,101655.77
2017-12-21T23:09:05.643Z,101660.89
2017-12-21T23:11:33.114Z,101666.73
2017-12-21T23:14:00.634Z,101660.34
2017-12-21T23:16:28.161Z,101660.34
2017-12-21T23:18:55.708Z,101655.35
2017-12-21T23:21:23.209Z,101661.97
2017-12-21T23:23:50.743Z,101666.91
2017-12-21T23:26:18.247Z,101671.92
2017-12-21T23:28:45.725Z,101665.03
2017-12-21T23:31:13.216Z,101675.28
2017-12-21T23:33:40.683Z,101669.66
2017-12-21T23:36:08.155Z,101667.72
2017-12-21T23:38:35.710Z,101673.16
2017-12-21T23:41:03.188Z,101672.63
2017-12-21T23:43:30.703Z,101680.41
2017-12-21T23:45:58.217Z,101679.38
2017-12-21T23:48:25.772Z,101682.67
2017-12-21T23:50:53.365Z,101676.05
2017-12-21T23:53:20.856Z,101678.47
2017-12-21T23:55:48.330Z,101676.72
2017-12-21T23:58:15.825Z,101680.53
